Time;durP1;ratioP1;P1;durP2;ratioP2;P2;SDS_P1;SDS_P2;PMS_P1;PMS_P2;Temp;Humidity;BMP_temperature;BMP_pressure;BME280_temperature;BME280_humidity;BME280_pressure;Samples;Min_cycle;Max_cycle;Signal;HPM_P1;HPM_P2
2022/12/07 00:00:51;;;;;;;12.55;2.72;;;3.70;99.90;;;;;;5018863;28;20041;-39
2022/12/07 00:03:17;;;;;;;8.85;1.75;;;3.70;99.90;;;;;;5028097;28;20127;-39
2022/12/07 00:05:44;;;;;;;13.13;1.55;;;3.70;99.90;;;;;;5025222;28;20049;-39
2022/12/07 00:08:11;;;;;;;4.22;1.45;;;3.60;99.90;;;;;;4996587;28;20054;-39
2022/12/07 00:10:39;;;;;;;9.23;1.60;;;3.60;99.90;;;;;;5029979;28;20050;-38
2022/12/07 00:13:06;;;;;;;12.85;2.08;;;3.60;99.90;;;;;;5030319;28;20139;-38
2022/12/07 00:15:35;;;;;;;7.72;1.67;;;3.60;99.90;;;;;;5023042;28;20064;-38
2022/12/07 00:18:02;;;;;;;10.02;1.48;;;3.60;99.90;;;;;;5026474;28;20053;-38
2022/12/07 00:20:30;;;;;;;13.48;2.13;;;3.50;99.90;;;;;;5034843;28;20050;-39
2022/12/07 00:22:56;;;;;;;11.75;2.60;;;3.50;99.90;;;;;;5030843;28;20493;-39
2022/12/07 00:25:23;;;;;;;12.88;2.28;;;3.50;99.90;;;;;;5013549;28;20045;-39
2022/12/07 00:27:52;;;;;;;16.95;2.15;;;3.50;99.90;;;;;;5012521;28;20050;-38
2022/12/07 00:30:19;;;;;;;9.82;2.40;;;3.50;99.90;;;;;;5018707;28;20103;-38
2022/12/07 00:32:46;;;;;;;13.48;2.30;;;3.50;99.90;;;;;;5044306;28;20053;-39
2022/12/07 00:35:13;;;;;;;13.48;2.28;;;3.50;99.90;;;;;;5034840;28;20053;-36
2022/12/07 00:37:40;;;;;;;7.65;1.45;;;3.60;99.90;;;;;;5030085;28;20045;-39
2022/12/07 00:40:07;;;;;;;18.30;1.85;;;3.50;99.90;;;;;;5035939;28;20054;-39
2022/12/07 00:42:34;;;;;;;11.68;2.05;;;3.50;99.90;;;;;;5020084;28;20404;-39
2022/12/07 00:45:02;;;;;;;9.80;2.28;;;3.50;99.90;;;;;;5028116;28;20563;-38
2022/12/07 00:47:29;;;;;;;12.90;2.30;;;3.50;99.90;;;;;;5031092;28;20099;-39
2022/12/07 00:49:56;;;;;;;12.70;2.10;;;3.50;99.90;;;;;;5007531;28;20482;-39
2022/12/07 00:52:23;;;;;;;8.65;1.80;;;3.50;99.90;;;;;;4999809;28;20116;-38
2022/12/07 00:54:50;;;;;;;9.57;2.15;;;3.40;99.90;;;;;;5030266;28;20053;-39
2022/12/07 00:57:16;;;;;;;10.07;1.90;;;3.50;99.90;;;;;;5029014;28;20111;-39
2022/12/07 00:59:43;;;;;;;10.05;1.95;;;3.50;99.90;;;;;;5010853;28;20053;-38
2022/12/07 01:02:11;;;;;;;12.23;1.73;;;3.50;99.90;;;;;;5025163;28;20428;-39
2022/12/07 01:04:38;;;;;;;11.57;2.40;;;3.50;99.90;;;;;;5026447;28;20104;-39
2022/12/07 01:07:05;;;;;;;6.43;1.95;;;3.50;99.90;;;;;;5027270;28;20049;-39
2022/12/07 01:09:32;;;;;;;14.98;2.03;;;3.40;99.90;;;;;;5028607;28;20127;-39
2022/12/07 01:11:59;;;;;;;9.13;1.98;;;3.50;99.90;;;;;;5025506;28;20049;-39
2022/12/07 01:14:26;;;;;;;9.35;1.60;;;3.50;99.90;;;;;;5005786;28;20061;-39
2022/12/07 01:16:52;;;;;;;11.27;2.22;;;3.50;99.90;;;;;;5026960;28;20073;-38
2022/12/07 01:19:21;;;;;;;12.93;2.25;;;3.50;99.90;;;;;;5017500;28;20455;-39
2022/12/07 01:21:47;;;;;;;9.30;1.80;;;3.50;99.90;;;;;;5032944;28;20448;-39
2022/12/07 01:24:14;;;;;;;7.50;1.40;;;3.50;99.90;;;;;;5032414;28;20045;-39
2022/12/07 01:26:41;;;;;;;8.52;1.67;;;3.40;99.90;;;;;;5017503;28;20103;-39
2022/12/07 01:29:08;;;;;;;12.82;2.10;;;3.40;99.90;;;;;;5017371;28;20056;-39
2022/12/07 01:31:35;;;;;;;9.77;1.73;;;3.50;99.90;;;;;;5015497;28;20095;-39
2022/12/07 01:34:02;;;;;;;8.20;1.85;;;3.50;99.90;;;;;;5015671;28;20054;-39
2022/12/07 01:36:31;;;;;;;10.45;1.60;;;3.50;99.90;;;;;;5025371;28;20064;-39
2022/12/07 01:38:58;;;;;;;9.68;1.48;;;3.50;99.90;;;;;;5034277;28;20107;-39
2022/12/07 01:41:26;;;;;;;11.30;1.60;;;3.60;99.90;;;;;;5034829;28;20041;-39
2022/12/07 01:44:16;;;;;;;12.30;1.70;;;3.50;99.90;;;;;;5033369;28;20050;-38
2022/12/07 01:46:44;;;;;;;7.82;1.77;;;3.60;99.90;;;;;;5015576;28;20139;-39
2022/12/07 01:49:13;;;;;;;6.50;1.15;;;3.70;99.90;;;;;;5034891;28;20486;-38
2022/12/07 01:51:41;;;;;;;6.50;1.30;;;3.60;99.90;;;;;;5041086;28;20460;-38
2022/12/07 01:54:08;;;;;;;8.40;1.20;;;3.60;99.90;;;;;;5033908;28;20396;-38
2022/12/07 01:56:35;;;;;;;9.07;1.17;;;3.60;99.90;;;;;;5031139;28;20077;-38
2022/12/07 01:59:02;;;;;;;10.55;1.50;;;3.60;99.90;;;;;;5008480;28;20057;-39
2022/12/07 02:01:29;;;;;;;9.13;1.67;;;3.60;99.90;;;;;;5015809;28;20110;-39
2022/12/07 02:03:56;;;;;;;12.77;2.70;;;3.60;99.90;;;;;;5032670;28;20445;-39
2022/12/07 02:06:24;;;;;;;13.25;3.53;;;3.70;99.90;;;;;;5028349;28;20103;-38
2022/12/07 02:08:52;;;;;;;12.93;3.58;;;3.60;99.90;;;;;;5017539;28;20049;-38
2022/12/07 02:11:19;;;;;;;10.75;4.03;;;3.60;99.90;;;;;;5032450;28;20045;-39
2022/12/07 02:13:46;;;;;;;15.45;4.40;;;3.60;99.90;;;;;;5033741;28;20147;-38
2022/12/07 02:16:22;;;;;;;11.80;5.15;;;3.70;99.90;;;;;;5034488;28;20053;-39
2022/12/07 02:18:56;;;;;;;12.80;5.22;;;3.50;99.90;;;;;;5032821;28;20107;-38
2022/12/07 02:21:27;;;;;;;15.50;5.05;;;3.50;99.90;;;;;;5031709;28;20107;-36
2022/12/07 02:24:14;;;;;;;12.65;4.45;;;3.50;99.90;;;;;;5025259;28;20057;-38
2022/12/07 02:27:11;;;;;;;15.52;4.93;;;3.40;99.90;;;;;;5025471;28;20053;-37
2022/12/07 02:29:41;;;;;;;19.30;4.38;;;3.40;99.90;;;;;;5024071;28;20163;-38
2022/12/07 02:32:10;;;;;;;12.30;3.92;;;3.40;99.90;;;;;;5009291;28;20049;-39
2022/12/07 02:34:41;;;;;;;12.38;3.90;;;3.30;99.90;;;;;;5015525;28;20053;-39
2022/12/07 02:37:10;;;;;;;;;;;3.30;99.90;;;;;;5028887;28;20080;-39
2022/12/07 02:39:40;;;;;;;13.75;3.17;;;3.30;99.90;;;;;;5023523;28;19921;-38
2022/12/07 02:42:10;;;;;;;11.43;2.80;;;3.20;99.90;;;;;;5030151;28;20061;-38
2022/12/07 02:44:37;;;;;;;10.45;2.72;;;3.20;99.90;;;;;;5014699;28;20049;-39
2022/12/07 02:47:07;;;;;;;16.00;3.20;;;3.20;99.90;;;;;;5026865;28;20477;-39
2022/12/07 02:49:37;;;;;;;10.73;2.30;;;3.20;99.90;;;;;;5013446;28;20556;-39
2022/12/07 02:52:04;;;;;;;10.27;2.67;;;3.30;99.90;;;;;;5017740;28;20141;-39
2022/12/07 02:54:31;;;;;;;11.48;2.78;;;3.30;99.90;;;;;;5033423;28;20448;-39
2022/12/07 02:57:01;;;;;;;10.35;2.28;;;3.30;99.90;;;;;;5032756;28;20111;-38
2022/12/07 02:59:36;;;;;;;15.13;2.33;;;3.30;99.90;;;;;;5031774;28;20092;-37
2022/12/07 03:02:09;;;;;;;9.13;2.08;;;3.30;99.90;;;;;;5015427;28;20053;-40
2022/12/07 03:04:42;;;;;;;8.95;1.80;;;3.20;99.90;;;;;;5028917;28;20432;-38
2022/12/07 03:07:12;;;;;;;9.75;1.60;;;3.30;99.90;;;;;;5007330;28;20046;-40
2022/12/07 03:09:42;;;;;;;10.45;1.70;;;3.20;99.90;;;;;;5020102;28;20100;-39
2022/12/07 03:12:10;;;;;;;12.63;1.80;;;3.20;99.90;;;;;;5028026;28;20107;-40
2022/12/07 03:14:39;;;;;;;9.95;1.63;;;3.20;99.90;;;;;;5031844;28;20049;-39
2022/12/07 03:17:09;;;;;;;12.75;1.60;;;3.20;99.90;;;;;;5031169;28;20061;-39
2022/12/07 03:19:36;;;;;;;13.50;1.70;;;3.20;99.90;;;;;;5015928;28;20053;-39
2022/12/07 03:22:04;;;;;;;12.02;1.60;;;3.20;99.90;;;;;;5030902;28;20049;-39
2022/12/07 03:24:34;;;;;;;11.02;1.63;;;3.30;99.90;;;;;;5029412;28;20399;-39
2022/12/07 03:27:03;;;;;;;7.10;1.25;;;3.30;99.90;;;;;;5029188;28;20603;-40
2022/12/07 03:29:32;;;;;;;8.77;1.27;;;3.30;99.90;;;;;;5015011;28;20563;-41
2022/12/07 03:32:01;;;;;;;12.18;1.73;;;3.30;99.90;;;;;;5025964;28;20057;-39
2022/12/07 03:34:32;;;;;;;13.15;1.50;;;3.30;99.90;;;;;;5020162;28;20053;-40
2022/12/07 03:37:00;;;;;;;9.48;1.27;;;3.40;99.90;;;;;;5000755;28;20111;-39
2022/12/07 03:39:28;;;;;;;9.73;1.10;;;3.40;99.90;;;;;;5014257;28;20436;-38
2022/12/07 03:41:55;;;;;;;16.63;1.55;;;3.40;99.90;;;;;;5032246;28;20115;-40
2022/12/07 03:44:22;;;;;;;7.07;1.25;;;3.30;99.90;;;;;;5031674;28;20101;-40
2022/12/07 03:46:51;;;;;;;9.77;1.30;;;3.40;99.90;;;;;;5029716;28;20069;-40
2022/12/07 03:49:22;;;;;;;11.02;1.58;;;3.30;99.90;;;;;;5024238;28;20460;-39
2022/12/07 03:51:52;;;;;;;7.45;1.13;;;3.30;99.90;;;;;;5028082;28;20053;-40
2022/12/07 03:54:20;;;;;;;7.68;1.35;;;3.30;99.90;;;;;;5032972;28;20057;-40
2022/12/07 03:56:47;;;;;;;7.03;1.20;;;3.20;99.90;;;;;;5026414;28;20050;-40
2022/12/07 03:59:14;;;;;;;10.88;1.40;;;3.30;99.90;;;;;;5031893;28;20060;-39
2022/12/07 04:01:43;;;;;;;8.27;1.27;;;3.20;99.90;;;;;;5032039;28;20049;-40
2022/12/07 04:04:10;;;;;;;12.65;1.40;;;3.20;99.90;;;;;;5012135;28;20056;-39
2022/12/07 04:06:39;;;;;;;4.03;0.90;;;3.10;99.90;;;;;;5034654;28;20512;-38
2022/12/07 04:09:08;;;;;;;13.38;1.92;;;3.10;99.90;;;;;;5005054;28;20073;-39
2022/12/07 04:11:34;;;;;;;6.43;1.23;;;3.10;99.90;;;;;;5028385;28;20163;-39
2022/12/07 04:14:19;;;;;;;7.03;1.45;;;3.00;99.90;;;;;;5030173;28;20053;-39
2022/12/07 04:16:46;;;;;;;5.60;1.38;;;3.10;99.90;;;;;;5031883;28;20060;-40
2022/12/07 04:19:13;;;;;;;7.90;1.15;;;3.00;99.90;;;;;;5031167;28;20045;-39
2022/12/07 04:21:40;;;;;;;7.50;1.10;;;3.00;99.90;;;;;;5024537;28;20056;-39
2022/12/07 04:24:12;;;;;;;8.30;1.27;;;2.90;99.90;;;;;;5016813;28;20050;-39
2022/12/07 04:26:39;;;;;;;6.00;1.10;;;2.90;99.90;;;;;;5006533;28;20046;-40
2022/12/07 04:29:06;;;;;;;6.43;1.15;;;2.90;99.90;;;;;;5005846;28;20099;-40
2022/12/07 04:31:32;;;;;;;7.30;1.10;;;2.90;99.90;;;;;;5030999;28;20121;-39
2022/12/07 04:33:59;;;;;;;10.85;1.35;;;2.90;99.90;;;;;;5013962;28;20551;-39
2022/12/07 04:36:26;;;;;;;7.65;1.48;;;2.80;99.90;;;;;;5031083;28;20050;-39
2022/12/07 04:38:54;;;;;;;9.75;1.33;;;2.80;99.90;;;;;;5027888;28;20050;-39
2022/12/07 04:41:26;;;;;;;14.38;1.48;;;2.80;99.90;;;;;;5026343;28;20448;-40
2022/12/07 04:43:54;;;;;;;14.73;1.42;;;2.80;99.90;;;;;;5027463;28;20050;-40
2022/12/07 04:46:21;;;;;;;10.43;1.35;;;2.80;99.90;;;;;;4998412;28;20119;-38
2022/12/07 04:48:50;;;;;;;7.88;1.35;;;2.90;99.90;;;;;;4996572;28;20092;-43
2022/12/07 04:51:20;;;;;;;10.27;1.25;;;2.90;99.90;;;;;;5021821;28;20112;-41
2022/12/07 04:53:47;;;;;;;15.20;2.95;;;3.00;99.90;;;;;;5028866;28;20084;-40
2022/12/07 04:56:14;;;;;;;10.35;2.60;;;3.00;99.90;;;;;;5025442;28;20086;-40
2022/12/07 04:58:42;;;;;;;10.50;2.17;;;3.00;99.90;;;;;;5037039;28;20512;-39
2022/12/07 05:01:09;;;;;;;18.42;1.67;;;3.10;99.90;;;;;;5044223;28;20049;-40
2022/12/07 05:03:37;;;;;;;7.63;1.33;;;3.10;99.90;;;;;;5007506;28;20481;-39
2022/12/07 05:06:04;;;;;;;8.35;1.30;;;3.10;99.90;;;;;;5016090;28;20057;-40
2022/12/07 05:08:31;;;;;;;7.43;1.13;;;3.10;99.90;;;;;;5020923;28;20103;-40
2022/12/07 05:10:58;;;;;;;8.50;0.90;;;3.10;99.90;;;;;;5028484;28;20053;-39
2022/12/07 05:13:24;;;;;;;7.07;1.20;;;3.10;99.90;;;;;;5017826;28;20057;-38
2022/12/07 05:15:52;;;;;;;16.42;1.40;;;3.00;99.90;;;;;;5032068;28;20046;-40
2022/12/07 05:18:19;;;;;;;8.10;1.17;;;3.00;99.90;;;;;;5013466;28;20057;-39
2022/12/07 05:20:46;;;;;;;7.82;1.42;;;3.00;99.90;;;;;;5015670;28;20103;-39
2022/12/07 05:23:13;;;;;;;11.35;1.27;;;2.90;99.90;;;;;;5034128;28;20450;-40
2022/12/07 05:25:40;;;;;;;6.57;1.20;;;2.90;99.90;;;;;;5016882;28;20104;-39
2022/12/07 05:28:07;;;;;;;12.63;1.42;;;2.90;99.90;;;;;;5022832;28;20081;-39
2022/12/07 05:30:33;;;;;;;8.38;1.10;;;2.90;99.90;;;;;;5033243;28;20131;-39
2022/12/07 05:33:02;;;;;;;6.97;1.40;;;2.80;99.90;;;;;;5006494;28;20056;-40
2022/12/07 05:35:29;;;;;;;4.63;0.80;;;2.80;99.90;;;;;;5011333;28;20053;-40
2022/12/07 05:37:56;;;;;;;7.05;1.02;;;2.80;99.90;;;;;;5012714;28;20077;-40
2022/12/07 05:40:23;;;;;;;8.65;1.15;;;2.70;99.90;;;;;;5001579;28;20088;-39
2022/12/07 05:42:50;;;;;;;7.13;1.27;;;2.70;99.90;;;;;;5011090;28;20452;-39
2022/12/07 05:45:17;;;;;;;7.75;1.25;;;2.70;99.90;;;;;;5009764;28;20061;-39
2022/12/07 05:47:44;;;;;;;9.43;1.27;;;2.60;99.90;;;;;;5026267;28;20498;-39
2022/12/07 05:50:12;;;;;;;9.40;1.75;;;2.60;99.90;;;;;;5027551;28;20365;-39
2022/12/07 05:52:39;;;;;;;11.38;1.23;;;2.60;99.90;;;;;;5018743;28;20563;-39
2022/12/07 05:55:07;;;;;;;12.50;1.63;;;2.60;99.90;;;;;;5033754;28;20150;-39
2022/12/07 05:57:34;;;;;;;6.35;1.40;;;2.60;99.90;;;;;;5029556;28;20427;-39
2022/12/07 06:00:00;;;;;;;8.27;1.25;;;2.60;99.90;;;;;;5033350;28;20452;-39
2022/12/07 06:02:27;;;;;;;9.52;1.80;;;2.60;99.90;;;;;;5030729;28;20058;-40
2022/12/07 06:04:54;;;;;;;11.95;1.60;;;2.60;99.90;;;;;;5009745;28;20049;-40
2022/12/07 06:07:22;;;;;;;9.27;1.48;;;2.60;99.90;;;;;;5033560;28;20053;-39
2022/12/07 06:09:49;;;;;;;5.55;1.13;;;2.60;99.90;;;;;;5035023;28;20045;-38
2022/12/07 06:15:00;;;;;;;16.13;1.90;;;2.60;99.90;;;;;;5031623;28;20046;-39
2022/12/07 06:17:27;;;;;;;13.38;1.38;;;2.70;99.90;;;;;;5027987;28;20056;-39
2022/12/07 06:19:53;;;;;;;7.45;1.42;;;2.70;99.90;;;;;;5010056;28;20563;-40
2022/12/07 06:22:22;;;;;;;15.70;1.50;;;2.70;99.90;;;;;;5011557;28;20057;-41
2022/12/07 06:24:48;;;;;;;8.80;1.50;;;2.70;99.90;;;;;;5009920;28;20339;-42
2022/12/07 06:27:15;;;;;;;14.20;1.58;;;2.80;99.90;;;;;;5031616;28;20049;-43
2022/12/07 06:29:42;;;;;;;12.93;1.52;;;2.80;99.90;;;;;;5033499;28;20092;-43
2022/12/07 06:32:09;;;;;;;11.30;1.55;;;2.80;99.90;;;;;;5015756;28;20057;-41
2022/12/07 06:34:36;;;;;;;12.48;1.38;;;2.90;99.90;;;;;;5031538;28;20115;-40
2022/12/07 06:37:03;;;;;;;13.18;1.50;;;2.90;99.90;;;;;;5026029;28;20049;-40
2022/12/07 06:39:31;;;;;;;8.93;1.30;;;2.90;99.90;;;;;;5005795;28;20053;-40
2022/12/07 06:41:58;;;;;;;5.93;1.10;;;2.90;99.90;;;;;;5028460;28;20050;-41
2022/12/07 06:44:24;;;;;;;11.40;1.42;;;2.90;99.90;;;;;;5032540;28;20089;-40
2022/12/07 06:46:51;;;;;;;17.88;1.92;;;2.90;99.90;;;;;;5011158;28;20085;-41
2022/12/07 06:49:18;;;;;;;9.55;1.40;;;2.90;99.90;;;;;;5031175;28;20104;-41
2022/12/07 06:51:45;;;;;;;9.20;1.50;;;2.90;99.90;;;;;;5014984;28;20085;-40
2022/12/07 06:54:12;;;;;;;8.00;1.00;;;2.90;99.90;;;;;;5033750;28;20045;-41
2022/12/07 06:56:40;;;;;;;12.60;1.63;;;2.90;99.90;;;;;;5021427;28;20501;-40
2022/12/07 06:59:07;;;;;;;8.75;1.27;;;2.90;99.90;;;;;;5024724;28;20049;-40
2022/12/07 07:01:34;;;;;;;13.55;1.52;;;2.90;99.90;;;;;;5012222;28;20053;-40
2022/12/07 07:04:01;;;;;;;6.80;1.40;;;2.90;99.90;;;;;;5013425;28;20143;-40
2022/12/07 07:06:28;;;;;;;15.13;1.45;;;3.00;99.90;;;;;;5032149;28;20049;-39
2022/12/07 07:08:55;;;;;;;11.35;1.63;;;2.90;99.90;;;;;;5033154;28;20104;-40
2022/12/07 07:11:21;;;;;;;10.05;2.00;;;3.00;99.90;;;;;;5029455;28;20057;-39
2022/12/07 07:13:50;;;;;;;16.25;1.70;;;3.00;99.90;;;;;;5013626;28;20058;-42
2022/12/07 07:16:17;;;;;;;10.35;1.58;;;3.10;99.90;;;;;;5013743;28;20058;-40
2022/12/07 07:18:43;;;;;;;9.88;1.73;;;3.10;99.90;;;;;;5011265;28;20456;-40
2022/12/07 07:21:10;;;;;;;12.10;2.20;;;3.10;99.90;;;;;;5015697;28;20188;-39
2022/12/07 07:23:37;;;;;;;11.02;1.40;;;3.10;99.90;;;;;;5016218;28;20053;-40
2022/12/07 07:26:04;;;;;;;10.98;1.30;;;3.20;99.90;;;;;;5013644;28;20383;-38
2022/12/07 07:28:31;;;;;;;8.52;1.50;;;3.10;99.90;;;;;;4996909;28;20054;-39
2022/12/07 07:30:59;;;;;;;14.98;2.03;;;3.10;99.90;;;;;;5013449;28;20100;-39
2022/12/07 07:33:26;;;;;;;12.35;2.63;;;3.10;99.90;;;;;;4996063;28;20133;-38
2022/12/07 07:35:53;;;;;;;10.18;2.60;;;3.00;99.90;;;;;;5013592;28;20046;-38
2022/12/07 07:38:20;;;;;;;12.07;3.50;;;3.00;99.90;;;;;;5015134;28;20057;-40
2022/12/07 07:40:47;;;;;;;16.20;3.85;;;3.00;99.90;;;;;;5033049;28;20052;-39
2022/12/07 07:43:14;;;;;;;16.98;4.15;;;3.00;99.90;;;;;;5013403;28;20127;-39
2022/12/07 07:45:41;;;;;;;18.00;4.35;;;3.00;99.90;;;;;;5013187;28;20080;-40
2022/12/07 07:48:09;;;;;;;15.88;2.65;;;3.00;99.90;;;;;;4995988;28;20054;-39
2022/12/07 07:50:36;;;;;;;10.25;2.40;;;3.00;99.90;;;;;;5020456;28;20042;-37
2022/12/07 07:53:02;;;;;;;12.80;2.20;;;3.00;99.90;;;;;;5013350;28;20050;-39
2022/12/07 07:55:29;;;;;;;8.63;1.88;;;3.00;99.90;;;;;;5020378;28;20516;-39
2022/12/07 07:57:56;;;;;;;10.25;1.65;;;3.00;99.90;;;;;;5032912;28;20085;-39
2022/12/07 08:00:23;;;;;;;10.45;1.88;;;3.00;99.90;;;;;;5032772;28;20490;-38
2022/12/07 08:02:50;;;;;;;6.85;1.58;;;3.10;99.90;;;;;;5032769;28;20079;-38
2022/12/07 08:05:18;;;;;;;9.07;1.75;;;3.00;99.90;;;;;;5030973;28;20057;-40
2022/12/07 08:07:45;;;;;;;8.40;1.67;;;3.10;99.90;;;;;;5015310;28;20073;-39
2022/12/07 08:10:13;;;;;;;11.65;1.63;;;3.10;99.90;;;;;;5032701;28;20045;-38
2022/12/07 08:13:10;;;;;;;9.40;2.03;;;3.10;99.90;;;;;;5017549;28;20151;-39
2022/12/07 08:15:27;;;;;;;12.38;1.60;;;3.10;99.90;;;;;;5015729;28;20041;-39
2022/12/07 08:17:54;;;;;;;11.05;1.52;;;3.10;99.90;;;;;;5032656;28;20050;-39
2022/12/07 08:20:22;;;;;;;8.75;1.60;;;3.10;99.90;;;;;;5031135;28;20045;-39
2022/12/07 08:22:49;;;;;;;9.45;1.30;;;3.20;99.90;;;;;;5032484;28;20493;-39
2022/12/07 08:25:19;;;;;;;13.98;1.48;;;3.10;99.90;;;;;;5014827;28;20127;-36
2022/12/07 08:27:46;;;;;;;9.15;1.52;;;3.10;99.90;;;;;;5038491;28;20135;-36
2022/12/07 08:30:13;;;;;;;9.15;1.88;;;3.10;99.90;;;;;;5021713;28;20455;-38
2022/12/07 08:32:40;;;;;;;8.07;1.40;;;3.10;99.90;;;;;;5016597;28;20096;-39
2022/12/07 08:35:07;;;;;;;11.55;1.60;;;3.10;99.90;;;;;;5019586;28;20050;-38
2022/12/07 08:37:35;;;;;;;9.43;1.40;;;3.10;99.90;;;;;;5019205;28;20120;-38
2022/12/07 08:40:02;;;;;;;10.88;1.98;;;3.00;99.90;;;;;;5019381;28;20428;-38
2022/12/07 08:42:37;;;;;;;12.20;1.90;;;3.10;99.90;;;;;;5017396;28;20131;-38
2022/12/07 08:45:05;;;;;;;10.75;1.67;;;3.10;99.90;;;;;;5021256;28;20057;-39
2022/12/07 08:47:32;;;;;;;7.80;1.67;;;3.10;99.90;;;;;;5037921;28;20084;-43
2022/12/07 08:50:03;;;;;;;7.30;1.58;;;3.20;99.90;;;;;;5039075;28;20085;-38
2022/12/07 08:52:30;;;;;;;15.38;1.70;;;3.20;99.90;;;;;;5021367;28;20099;-39
2022/12/07 08:54:58;;;;;;;7.20;1.42;;;3.20;99.90;;;;;;5021195;28;20045;-38
2022/12/07 08:57:25;;;;;;;7.50;1.50;;;3.20;99.90;;;;;;5036829;28;20046;-40
2022/12/07 08:59:52;;;;;;;8.35;1.60;;;3.20;99.90;;;;;;5039033;28;20057;-40
2022/12/07 09:02:19;;;;;;;11.82;2.22;;;3.20;99.90;;;;;;5039104;28;20057;-41
2022/12/07 09:04:46;;;;;;;7.22;1.77;;;3.20;99.90;;;;;;5038793;28;20052;-41
2022/12/07 09:07:13;;;;;;;15.25;2.22;;;3.20;99.90;;;;;;5021550;28;20103;-39
2022/12/07 09:09:39;;;;;;;14.38;1.92;;;3.40;99.90;;;;;;5013406;28;20104;-40
2022/12/07 09:12:08;;;;;;;10.40;2.35;;;3.30;99.90;;;;;;5019464;28;20391;-39
2022/12/07 09:14:34;;;;;;;11.65;2.13;;;3.30;99.90;;;;;;5001708;28;20054;-39
2022/12/07 09:17:06;;;;;;;10.85;2.08;;;3.30;99.90;;;;;;5019419;28;20570;-39
2022/12/07 09:19:33;;;;;;;;;;;3.30;99.90;;;;;;5019437;28;20112;-39
2022/12/07 09:22:00;;;;;;;11.95;1.90;;;3.40;99.90;;;;;;5019015;28;19921;-40
2022/12/07 09:24:26;;;;;;;11.93;1.95;;;3.30;99.90;;;;;;5031239;28;20049;-39
2022/12/07 09:26:53;;;;;;;12.85;2.00;;;3.30;99.90;;;;;;5020603;28;20084;-40
2022/12/07 09:29:21;;;;;;;19.60;1.95;;;3.40;99.90;;;;;;5039040;28;20092;-39
2022/12/07 09:31:48;;;;;;;14.55;1.88;;;3.30;99.90;;;;;;5021100;28;20049;-39
2022/12/07 09:34:15;;;;;;;9.75;1.90;;;3.50;99.90;;;;;;5038399;28;20053;-39
2022/12/07 09:36:42;;;;;;;14.02;2.22;;;3.50;99.90;;;;;;5019644;28;20495;-39
2022/12/07 09:39:09;;;;;;;13.45;2.20;;;3.60;99.90;;;;;;5017084;28;20061;-40
2022/12/07 09:41:38;;;;;;;10.45;1.95;;;3.80;99.90;;;;;;5024482;28;20062;-41
2022/12/07 09:44:06;;;;;;;14.82;2.10;;;3.90;99.90;;;;;;5018784;28;20409;-42
2022/12/07 09:46:36;;;;;;;14.38;2.17;;;4.00;99.90;;;;;;5035494;28;20056;-46
2022/12/07 09:49:03;;;;;;;11.07;1.95;;;4.00;99.90;;;;;;5035364;28;20094;-44
2022/12/07 09:51:30;;;;;;;8.98;1.75;;;4.10;99.90;;;;;;5035274;28;20072;-43
2022/12/07 09:53:58;;;;;;;11.75;1.95;;;4.10;99.90;;;;;;5017656;28;20061;-43
2022/12/07 09:56:25;;;;;;;13.00;1.98;;;4.10;99.90;;;;;;5016092;28;20062;-44
2022/12/07 09:58:55;;;;;;;8.20;1.83;;;4.20;99.90;;;;;;5035100;28;20123;-43
2022/12/07 10:01:22;;;;;;;15.50;2.50;;;4.20;99.90;;;;;;5035033;28;20053;-43
2022/12/07 10:03:51;;;;;;;10.75;1.40;;;4.20;99.90;;;;;;5034053;28;20053;-39
2022/12/07 10:06:18;;;;;;;9.02;1.80;;;4.30;99.90;;;;;;5034805;28;20049;-42
2022/12/07 10:08:45;;;;;;;11.70;2.42;;;4.20;99.90;;;;;;5004933;28;20100;-43
2022/12/07 10:11:14;;;;;;;13.25;2.05;;;4.30;99.90;;;;;;5015525;28;20045;-44
2022/12/07 10:13:42;;;;;;;9.70;2.70;;;4.30;99.90;;;;;;4997269;28;20061;-42
2022/12/07 10:16:27;;;;;;;9.98;2.60;;;4.30;99.90;;;;;;5014902;28;20129;-42
2022/12/07 10:18:55;;;;;;;10.15;1.55;;;4.30;99.90;;;;;;4997497;28;20050;-40
2022/12/07 10:21:25;;;;;;;8.98;1.60;;;4.30;99.90;;;;;;5017406;28;20045;-40
2022/12/07 10:24:02;;;;;;;8.60;1.38;;;4.40;99.90;;;;;;5017031;28;20099;-40
2022/12/07 10:26:31;;;;;;;12.25;1.60;;;4.40;99.90;;;;;;5034595;28;20392;-39
2022/12/07 10:29:00;;;;;;;14.48;1.90;;;4.40;99.90;;;;;;5034722;28;20049;-39
2022/12/07 10:31:27;;;;;;;12.65;2.50;;;4.40;99.90;;;;;;5034407;28;20104;-39
2022/12/07 10:33:56;;;;;;;8.93;1.70;;;4.40;99.90;;;;;;5034627;28;20045;-39
2022/12/07 10:36:24;;;;;;;12.77;2.03;;;4.50;99.90;;;;;;5002074;28;20053;-39
2022/12/07 10:38:52;;;;;;;9.30;1.88;;;4.60;99.90;;;;;;5014545;28;20112;-38
2022/12/07 10:41:19;;;;;;;11.30;1.70;;;4.70;99.90;;;;;;5007078;28;20049;-38
2022/12/07 10:43:54;;;;;;;13.55;2.08;;;4.90;99.90;;;;;;5016836;28;20057;-38
2022/12/07 10:46:54;;;;;;;12.27;1.83;;;4.90;99.90;;;;;;5016475;28;20057;-38
2022/12/07 10:49:47;;;;;;;6.30;1.80;;;4.90;99.90;;;;;;5031687;28;20735;-38
2022/12/07 10:52:19;;;;;;;9.60;1.50;;;5.00;99.90;;;;;;5033978;28;20049;-39
2022/12/07 10:54:47;;;;;;;;;;;5.10;99.90;;;;;;5017040;28;20057;-39
2022/12/07 10:57:23;;;;;;;8.93;2.08;;;5.10;99.90;;;;;;5016406;28;19928;-39
2022/12/07 11:00:10;;;;;;;12.77;1.67;;;5.10;99.90;;;;;;5034013;28;20057;-39
2022/12/07 11:02:44;;;;;;;8.45;1.38;;;5.20;99.90;;;;;;5026006;28;20045;-38
2022/12/07 11:05:18;;;;;;;6.82;1.45;;;5.20;99.90;;;;;;4996672;28;20050;-39
2022/12/07 11:07:50;;;;;;;12.45;1.40;;;5.30;99.90;;;;;;5013979;28;20508;-40
2022/12/07 11:10:19;;;;;;;13.55;2.10;;;5.40;99.90;;;;;;5014329;28;20061;-39
2022/12/07 11:12:53;;;;;;;13.95;1.85;;;5.40;99.90;;;;;;5017350;28;20099;-39
2022/12/07 11:15:23;;;;;;;13.23;1.83;;;5.50;99.90;;;;;;5033741;28;20088;-39
2022/12/07 11:17:54;;;;;;;15.43;2.25;;;5.50;99.90;;;;;;5033559;28;20100;-39
2022/12/07 11:20:40;;;;;;;14.57;2.37;;;5.50;99.90;;;;;;5025178;28;20653;-39
2022/12/07 11:23:14;;;;;;;8.35;1.60;;;5.40;99.90;;;;;;5016133;28;20051;-40
2022/12/07 11:25:45;;;;;;;9.52;1.55;;;5.50;99.90;;;;;;5014733;28;20050;-39
2022/12/07 11:28:19;;;;;;;10.25;1.58;;;5.40;99.90;;;;;;5033421;28;20053;-39
2022/12/07 11:30:49;;;;;;;12.43;1.55;;;5.40;99.90;;;;;;5033497;28;20128;-39
2022/12/07 11:33:18;;;;;;;6.88;1.70;;;5.40;99.90;;;;;;5033514;28;20045;-38
2022/12/07 11:35:56;;;;;;;8.35;1.40;;;5.40;99.90;;;;;;5033692;28;20085;-39
2022/12/07 11:38:24;;;;;;;10.25;1.98;;;5.40;99.90;;;;;;5001783;28;20108;-38
2022/12/07 11:40:52;;;;;;;9.57;1.90;;;5.40;99.90;;;;;;4996325;28;20478;-39
2022/12/07 11:43:22;;;;;;;8.38;1.42;;;5.40;99.90;;;;;;5013238;28;20058;-38
2022/12/07 11:45:53;;;;;;;10.68;1.80;;;5.40;99.90;;;;;;5013766;28;20046;-38
2022/12/07 11:48:23;;;;;;;9.52;1.30;;;5.40;99.90;;;;;;4996089;28;20046;-38
2022/12/07 11:50:53;;;;;;;7.95;1.60;;;5.50;99.90;;;;;;5017046;28;20449;-37
2022/12/07 11:53:21;;;;;;;12.95;1.88;;;5.40;99.90;;;;;;5030909;28;20060;-39
2022/12/07 11:55:51;;;;;;;10.80;1.50;;;5.40;99.90;;;;;;5032947;28;20098;-39
2022/12/07 11:58:24;;;;;;;12.18;1.95;;;5.40;99.90;;;;;;5015523;28;20084;-39
2022/12/07 12:00:51;;;;;;;8.23;1.30;;;5.50;99.90;;;;;;5032351;28;20092;-37
2022/12/07 12:03:21;;;;;;;13.73;1.70;;;5.50;99.90;;;;;;5015084;28;20049;-39
2022/12/07 12:05:49;;;;;;;12.13;1.90;;;5.70;99.90;;;;;;5030881;28;20143;-39
2022/12/07 12:08:19;;;;;;;16.67;2.03;;;5.70;99.90;;;;;;5025110;28;20050;-38
2022/12/07 12:10:52;;;;;;;13.32;2.05;;;5.80;99.90;;;;;;5012781;28;20041;-38
2022/12/07 12:13:48;;;;;;;14.50;1.75;;;5.90;99.90;;;;;;4995723;28;20095;-39
2022/12/07 12:16:34;;;;;;;12.27;2.17;;;6.00;99.90;;;;;;5008567;28;20057;-38
2022/12/07 12:19:08;;;;;;;12.75;1.73;;;6.00;99.90;;;;;;5009872;28;20053;-38
2022/12/07 12:21:34;;;;;;;9.93;1.80;;;6.10;99.90;;;;;;5014486;28;20099;-37
2022/12/07 12:24:04;;;;;;;9.13;1.63;;;6.10;99.90;;;;;;5041133;28;20052;-38
2022/12/07 12:26:32;;;;;;;10.30;1.85;;;6.10;99.90;;;;;;5013206;28;20049;-38
2022/12/07 12:28:59;;;;;;;15.57;2.00;;;6.20;99.90;;;;;;5032506;28;20135;-37
2022/12/07 12:31:35;;;;;;;12.40;1.63;;;6.10;99.90;;;;;;5032790;28;20053;-39
2022/12/07 12:34:02;;;;;;;12.38;1.70;;;6.10;99.90;;;;;;5032313;28;20045;-38
2022/12/07 12:36:45;;;;;;;5.63;1.50;;;6.10;99.90;;;;;;5014326;28;20054;-39
2022/12/07 12:39:14;;;;;;;10.95;1.38;;;6.10;99.90;;;;;;5020687;28;20045;-38
2022/12/07 12:42:07;;;;;;;9.07;1.02;;;6.20;99.90;;;;;;5032104;28;20058;-38
2022/12/07 12:44:58;;;;;;;8.18;1.38;;;6.20;99.90;;;;;;5024032;28;20054;-38
2022/12/07 12:47:52;;;;;;;10.60;1.30;;;6.30;99.90;;;;;;5011921;28;20103;-38
2022/12/07 12:50:21;;;;;;;7.45;1.25;;;6.20;99.90;;;;;;4995612;28;20069;-38
2022/12/07 12:53:03;;;;;;;8.35;1.48;;;6.30;99.90;;;;;;5010978;28;20073;-38
2022/12/07 12:56:01;;;;;;;9.07;1.48;;;6.20;99.90;;;;;;5013252;28;20136;-38
2022/12/07 12:58:36;;;;;;;8.38;1.40;;;6.20;99.90;;;;;;5012727;28;20080;-38
2022/12/07 13:01:46;;;;;;;7.30;1.40;;;6.10;99.90;;;;;;5025710;28;20057;-38
2022/12/07 13:04:27;;;;;;;7.53;1.30;;;6.10;99.90;;;;;;5030731;28;20512;-36
2022/12/07 13:06:54;;;;;;;4.95;1.05;;;6.10;99.90;;;;;;5012391;28;20116;-38